createdAt,value
2022-12-11T00:00:21.385Z,21.85
2022-12-11T00:02:47.741Z,22.35
2022-12-11T00:05:14.079Z,22.13
2022-12-11T00:07:40.463Z,20.63
2022-12-11T00:10:07.252Z,19.48
2022-12-11T00:12:33.610Z,19.55
2022-12-11T00:14:59.927Z,17.70
2022-12-11T00:17:26.254Z,16.70
2022-12-11T00:19:52.562Z,16.63
2022-12-11T00:22:18.938Z,17.85
2022-12-11T00:24:45.263Z,16.25
2022-12-11T00:27:11.756Z,18.80
2022-12-11T00:29:38.059Z,17.23
2022-12-11T00:32:04.510Z,16.98
2022-12-11T00:34:30.846Z,18.25
2022-12-11T00:36:59.024Z,17.30
2022-12-11T00:39:25.560Z,16.00
2022-12-11T00:41:51.864Z,14.80
2022-12-11T00:44:18.231Z,14.23
2022-12-11T00:46:44.542Z,13.75
2022-12-11T00:49:10.876Z,13.30
2022-12-11T00:51:37.239Z,13.18
2022-12-11T00:54:03.590Z,14.10
2022-12-11T00:56:30.030Z,16.42
2022-12-11T00:58:56.415Z,12.10
2022-12-11T01:01:23.676Z,12.00
2022-12-11T01:03:50.095Z,13.93
2022-12-11T01:06:18.022Z,12.95
2022-12-11T01:08:45.145Z,12.90
2022-12-11T01:11:13.301Z,14.52
2022-12-11T01:13:40.300Z,14.45
2022-12-11T01:16:07.882Z,13.00
2022-12-11T01:18:34.240Z,13.60
2022-12-11T01:21:04.784Z,13.88
2022-12-11T01:23:31.071Z,14.23
2022-12-11T01:25:57.432Z,16.30
2022-12-11T01:28:23.833Z,16.20
2022-12-11T01:30:50.198Z,16.50
2022-12-11T01:33:16.539Z,16.13
2022-12-11T01:35:42.832Z,15.70
2022-12-11T01:38:09.880Z,17.77
2022-12-11T01:40:36.164Z,19.35
2022-12-11T01:43:02.519Z,17.05
2022-12-11T01:45:39.614Z,16.45
2022-12-11T01:48:17.715Z,17.15
2022-12-11T01:50:46.482Z,17.02
2022-12-11T01:53:16.215Z,17.63
2022-12-11T01:55:42.641Z,21.08
2022-12-11T01:58:10.162Z,18.25
2022-12-11T02:00:36.494Z,18.70
2022-12-11T02:03:02.863Z,16.50
2022-12-11T02:05:29.181Z,17.20
2022-12-11T02:07:58.349Z,18.67
2022-12-11T02:10:28.952Z,17.67
2022-12-11T02:13:15.514Z,19.50
2022-12-11T02:16:00.735Z,21.38
2022-12-11T02:18:31.454Z,18.55
2022-12-11T02:21:23.870Z,19.95
2022-12-11T02:23:50.167Z,18.23
2022-12-11T02:26:19.325Z,18.83
2022-12-11T02:28:47.029Z,19.27
2022-12-11T02:31:20.163Z,21.35
2022-12-11T02:33:52.350Z,20.85
2022-12-11T02:36:20.019Z,21.30
2022-12-11T02:38:50.568Z,21.13
2022-12-11T02:41:18.428Z,22.45
2022-12-11T02:43:45.448Z,23.58
2022-12-11T02:46:12.366Z,23.92
2022-12-11T02:48:39.115Z,23.02
2022-12-11T02:51:06.902Z,22.95
2022-12-11T02:53:35.132Z,23.80
2022-12-11T02:56:06.948Z,23.35
2022-12-11T02:58:33.702Z,24.95
2022-12-11T03:01:00.308Z,26.60
2022-12-11T03:03:28.436Z,25.55
2022-12-11T03:05:55.320Z,24.48
2022-12-11T03:08:21.685Z,26.17
2022-12-11T03:10:48.070Z,27.40
2022-12-11T03:13:16.229Z,23.60
2022-12-11T03:15:51.798Z,24.45
2022-12-11T03:18:31.287Z,24.58
2022-12-11T03:21:10.085Z,23.17
2022-12-11T03:23:51.265Z,23.05
2022-12-11T03:26:18.805Z,25.00
2022-12-11T03:28:47.401Z,24.98
2022-12-11T03:31:16.976Z,23.77
2022-12-11T03:33:46.049Z,21.60
2022-12-11T03:36:20.316Z,26.35
2022-12-11T03:38:51.555Z,26.85
2022-12-11T03:41:20.014Z,25.00
2022-12-11T03:43:46.717Z,24.30
2022-12-11T03:46:14.297Z,24.45
2022-12-11T03:48:41.884Z,22.88
2022-12-11T03:51:08.386Z,22.02
2022-12-11T03:53:35.665Z,23.38
2022-12-11T03:56:03.046Z,25.40
2022-12-11T03:58:29.796Z,18.95
2022-12-11T04:00:56.146Z,20.00
2022-12-11T04:03:22.532Z,20.58
2022-12-11T04:05:51.863Z,18.65
2022-12-11T04:08:18.822Z,22.75
2022-12-11T04:10:45.325Z,19.30
2022-12-11T04:13:11.713Z,18.15
2022-12-11T04:15:38.726Z,18.38
2022-12-11T04:18:24.009Z,16.65
2022-12-11T04:21:11.524Z,16.80
2022-12-11T04:23:56.396Z,16.98
2022-12-11T04:26:22.786Z,16.20
2022-12-11T04:28:49.288Z,18.70
2022-12-11T04:31:17.154Z,14.82
2022-12-11T04:33:43.738Z,17.92
2022-12-11T04:36:10.992Z,15.93
2022-12-11T04:38:37.376Z,18.40
2022-12-11T04:41:04.990Z,14.48
2022-12-11T04:43:31.330Z,15.50
2022-12-11T04:46:04.624Z,18.75
2022-12-11T04:48:31.200Z,17.92
2022-12-11T04:50:58.042Z,15.50
2022-12-11T04:53:24.679Z,14.57
2022-12-11T04:55:51.035Z,17.02
2022-12-11T04:58:17.380Z,16.45
2022-12-11T05:00:43.842Z,16.27
2022-12-11T05:03:10.355Z,15.63
2022-12-11T05:05:36.715Z,17.02
2022-12-11T05:08:03.175Z,14.75
2022-12-11T05:10:29.561Z,15.13
2022-12-11T05:12:55.842Z,13.70
2022-12-11T05:15:22.219Z,15.57
2022-12-11T05:17:48.515Z,13.25
2022-12-11T05:20:14.841Z,15.35
2022-12-11T05:22:41.521Z,14.50
2022-12-11T05:25:08.121Z,13.00
2022-12-11T05:27:34.557Z,14.55
2022-12-11T05:30:00.981Z,16.48
2022-12-11T05:32:27.267Z,14.82
2022-12-11T05:34:53.603Z,13.73
2022-12-11T05:37:19.950Z,11.63
2022-12-11T05:39:46.243Z,14.70
2022-12-11T05:42:12.563Z,14.77
2022-12-11T05:44:39.014Z,11.40
2022-12-11T05:47:05.313Z,14.02
2022-12-11T05:49:31.629Z,12.25
2022-12-11T05:51:57.998Z,11.88
2022-12-11T05:54:24.400Z,13.75
2022-12-11T05:56:51.382Z,13.88
2022-12-11T05:59:19.620Z,12.07
2022-12-11T06:01:46.178Z,12.98
2022-12-11T06:04:13.327Z,13.95
2022-12-11T06:06:40.496Z,12.65
2022-12-11T06:09:07.111Z,14.70
2022-12-11T06:11:33.980Z,15.55
2022-12-11T06:14:01.783Z,13.70
2022-12-11T06:16:28.089Z,12.50
2022-12-11T06:18:58.020Z,15.93
2022-12-11T06:21:29.907Z,12.88
2022-12-11T06:23:57.163Z,13.35
2022-12-11T06:26:23.956Z,12.25
2022-12-11T06:28:50.686Z,14.52
2022-12-11T06:31:17.547Z,13.00
2022-12-11T06:33:44.020Z,15.32
2022-12-11T06:36:11.794Z,14.85
2022-12-11T06:38:38.587Z,16.50
2022-12-11T06:41:05.855Z,14.93
2022-12-11T06:43:32.843Z,16.90
2022-12-11T06:46:03.884Z,17.95
2022-12-11T06:48:30.827Z,18.38
2022-12-11T06:50:57.831Z,20.48
2022-12-11T06:53:24.126Z,18.08
2022-12-11T06:55:50.493Z,17.80
2022-12-11T06:58:16.778Z,16.88
2022-12-11T07:00:43.119Z,20.98
2022-12-11T07:03:10.099Z,18.08
2022-12-11T07:05:36.409Z,18.77
2022-12-11T07:08:02.836Z,19.95
2022-12-11T07:10:29.261Z,16.20
2022-12-11T07:12:55.683Z,18.65
2022-12-11T07:15:22.130Z,20.77
2022-12-11T07:17:48.440Z,17.60
2022-12-11T07:20:14.806Z,18.27
2022-12-11T07:22:46.214Z,19.20
2022-12-11T07:25:13.355Z,19.98
2022-12-11T07:27:39.944Z,17.23
2022-12-11T07:30:06.554Z,18.98
2022-12-11T07:32:33.003Z,18.40
2022-12-11T07:34:59.580Z,17.15
2022-12-11T07:37:25.996Z,19.08
2022-12-11T07:39:52.322Z,18.08
2022-12-11T07:42:18.845Z,18.30
2022-12-11T07:44:45.147Z,19.48
2022-12-11T07:47:11.448Z,17.73
2022-12-11T07:49:38.259Z,19.17
2022-12-11T07:52:04.733Z,16.45
2022-12-11T07:54:31.205Z,16.52
2022-12-11T07:56:57.775Z,16.60
2022-12-11T07:59:24.162Z,17.98
2022-12-11T08:01:50.481Z,15.50
2022-12-11T08:04:16.761Z,17.30
2022-12-11T08:06:43.281Z,16.30
2022-12-11T08:09:14.667Z,15.82
2022-12-11T08:11:45.330Z,17.35
2022-12-11T08:14:11.620Z,17.00
2022-12-11T08:16:40.209Z,18.60
2022-12-11T08:19:06.519Z,18.55
2022-12-11T08:21:32.854Z,16.02
2022-12-11T08:23:59.227Z,16.20
2022-12-11T08:26:27.144Z,17.52
2022-12-11T08:28:53.826Z,14.73
2022-12-11T08:31:20.585Z,14.90
2022-12-11T08:33:47.476Z,15.77
2022-12-11T08:36:15.490Z,15.90
2022-12-11T08:38:42.367Z,14.15
2022-12-11T08:41:08.764Z,14.52
2022-12-11T08:43:35.168Z,15.15
2022-12-11T08:46:01.613Z,15.38
2022-12-11T08:48:28.150Z,15.70
2022-12-11T08:50:54.472Z,12.88
2022-12-11T08:53:20.811Z,14.20
2022-12-11T08:55:47.334Z,17.58
2022-12-11T08:58:13.618Z,15.23
2022-12-11T09:00:41.372Z,14.18
2022-12-11T09:03:12.642Z,17.08
2022-12-11T09:05:40.054Z,16.08
2022-12-11T09:08:07.211Z,15.05
2022-12-11T09:10:33.576Z,15.30
2022-12-11T09:12:59.855Z,19.48
2022-12-11T09:15:26.175Z,16.40
2022-12-11T09:17:52.499Z,16.27
2022-12-11T09:20:18.828Z,16.35
2022-12-11T09:22:45.239Z,16.75
2022-12-11T09:25:11.879Z,17.08
2022-12-11T09:27:38.316Z,18.00
2022-12-11T09:30:05.096Z,16.67
2022-12-11T09:32:31.406Z,19.17
2022-12-11T09:34:57.783Z,20.63
2022-12-11T09:37:24.966Z,21.13
2022-12-11T09:39:51.285Z,19.70
2022-12-11T09:42:20.832Z,20.50
2022-12-11T09:44:50.592Z,20.50
2022-12-11T09:47:34.670Z,19.23
2022-12-11T09:50:04.554Z,21.45
2022-12-11T09:52:57.166Z,23.50
2022-12-11T09:55:25.043Z,22.45
2022-12-11T09:58:01.635Z,24.10
2022-12-11T10:00:39.939Z,23.38
2022-12-11T10:03:12.461Z,21.40
2022-12-11T10:05:42.034Z,21.17
2022-12-11T10:08:11.161Z,23.95
2022-12-11T10:10:42.781Z,23.98
2022-12-11T10:13:27.772Z,21.50
2022-12-11T10:15:54.084Z,24.50
2022-12-11T10:18:23.030Z,24.55
2022-12-11T10:20:50.819Z,21.58
2022-12-11T10:23:19.636Z,22.83
2022-12-11T10:25:49.663Z,24.80
2022-12-11T10:28:17.323Z,26.25
2022-12-11T10:30:46.803Z,24.23
2022-12-11T10:33:34.602Z,23.65
2022-12-11T10:36:00.931Z,23.88
2022-12-11T10:38:28.983Z,25.70
2022-12-11T10:40:57.966Z,25.20
2022-12-11T10:43:34.617Z,26.58
2022-12-11T10:46:01.134Z,24.45
2022-12-11T10:48:27.542Z,23.98
2022-12-11T10:51:01.737Z,30.08
2022-12-11T10:53:29.179Z,23.52
2022-12-11T10:55:57.946Z,31.13
2022-12-11T10:58:25.928Z,23.35
2022-12-11T11:01:06.581Z,25.20
2022-12-11T11:03:33.889Z,24.60
2022-12-11T11:06:13.696Z,28.63
2022-12-11T11:08:41.566Z,23.77
2022-12-11T11:11:19.778Z,23.55
2022-12-11T11:13:46.208Z,24.23
2022-12-11T11:16:13.764Z,25.92
2022-12-11T11:18:40.812Z,25.20
2022-12-11T11:21:07.518Z,26.00
2022-12-11T11:23:34.351Z,25.80
2022-12-11T11:26:01.884Z,29.48
2022-12-11T11:28:34.702Z,26.10
2022-12-11T11:31:03.465Z,26.58
2022-12-11T11:33:31.068Z,28.15
2022-12-11T11:35:59.074Z,27.02
2022-12-11T11:38:28.148Z,26.65
2022-12-11T11:41:04.214Z,24.50
2022-12-11T11:43:38.563Z,23.48
2022-12-11T11:46:14.071Z,25.13
2022-12-11T11:49:06.491Z,26.23
2022-12-11T11:51:45.282Z,26.13
2022-12-11T11:54:30.183Z,26.77
2022-12-11T11:56:57.167Z,27.02
2022-12-11T11:59:40.173Z,24.83
2022-12-11T12:02:14.350Z,25.35
2022-12-11T12:04:42.063Z,23.17
2022-12-11T12:07:11.478Z,23.02
2022-12-11T12:10:03.557Z,24.55
2022-12-11T12:12:48.878Z,23.90
2022-12-11T12:15:15.169Z,23.92
2022-12-11T12:17:58.284Z,23.00
2022-12-11T12:20:30.818Z,28.60
2022-12-11T12:23:03.073Z,20.17
2022-12-11T12:25:40.730Z,24.70
2022-12-11T12:28:19.198Z,23.90
2022-12-11T12:31:04.496Z,19.83
2022-12-11T12:33:34.048Z,19.10
2022-12-11T12:36:06.392Z,22.25
2022-12-11T12:38:42.767Z,22.08
2022-12-11T12:41:13.992Z,26.15
2022-12-11T12:43:52.481Z,22.63
2022-12-11T12:46:39.939Z,16.75
2022-12-11T12:49:09.016Z,23.65
2022-12-11T12:51:35.457Z,20.67
2022-12-11T12:54:06.555Z,22.40
2022-12-11T12:56:37.549Z,21.35
2022-12-11T12:59:03.919Z,19.33
2022-12-11T13:01:31.284Z,18.17
2022-12-11T13:04:02.427Z,21.63
2022-12-11T13:06:30.316Z,18.40
2022-12-11T13:08:57.121Z,22.15
2022-12-11T13:11:31.615Z,22.48
2022-12-11T13:14:03.578Z,20.77
2022-12-11T13:16:42.030Z,26.63
2022-12-11T13:19:18.171Z,23.05
2022-12-11T13:21:54.926Z,26.00
2022-12-11T13:24:21.165Z,28.20
2022-12-11T13:26:48.175Z,27.25
2022-12-11T13:29:32.690Z,23.75
2022-12-11T13:32:00.258Z,29.10
2022-12-11T13:34:29.140Z,28.85
2022-12-11T13:36:55.583Z,25.33
2022-12-11T13:39:22.235Z,27.65
2022-12-11T13:41:50.511Z,26.00
2022-12-11T13:44:25.928Z,23.77
2022-12-11T13:46:53.725Z,22.83
2022-12-11T13:49:24.461Z,25.83
2022-12-11T13:51:51.865Z,26.63
2022-12-11T13:54:19.039Z,29.10
2022-12-11T13:56:55.707Z,23.45
2022-12-11T13:59:27.009Z,25.25
2022-12-11T14:01:55.115Z,22.80
2022-12-11T14:04:22.176Z,23.05
2022-12-11T14:06:49.146Z,23.60
2022-12-11T14:09:18.166Z,20.58
2022-12-11T14:11:46.070Z,23.25
2022-12-11T14:14:21.020Z,19.05
2022-12-11T14:16:49.147Z,17.77
2022-12-11T14:19:17.590Z,16.23
2022-12-11T14:21:54.392Z,17.27
2022-12-11T14:24:20.727Z,16.20
2022-12-11T14:26:50.506Z,16.95
2022-12-11T14:29:29.622Z,20.67
2022-12-11T14:31:57.163Z,19.60
2022-12-11T14:34:28.914Z,19.55
2022-12-11T14:36:56.148Z,19.88
2022-12-11T14:39:22.557Z,16.33
2022-12-11T14:41:52.789Z,16.55
2022-12-11T14:44:21.023Z,16.25
2022-12-11T14:46:52.710Z,15.63
2022-12-11T14:49:23.195Z,18.08
2022-12-11T14:51:50.680Z,21.45
2022-12-11T14:54:52.684Z,19.77
2022-12-11T14:57:20.599Z,22.77
2022-12-11T14:59:47.996Z,19.60
2022-12-11T15:02:23.828Z,19.80
2022-12-11T15:05:12.174Z,18.42
2022-12-11T15:07:39.041Z,20.10
2022-12-11T15:10:05.483Z,22.48
2022-12-11T15:12:32.014Z,18.73
2022-12-11T15:15:00.893Z,18.48
2022-12-11T15:17:27.586Z,22.17
2022-12-11T15:19:55.957Z,19.23
2022-12-11T15:22:26.165Z,24.05
2022-12-11T15:24:53.674Z,17.70
2022-12-11T15:27:29.031Z,21.13
2022-12-11T15:29:55.428Z,23.58
2022-12-11T15:32:22.000Z,21.90
2022-12-11T15:34:48.399Z,21.60
2022-12-11T15:37:28.328Z,20.80
2022-12-11T15:39:55.436Z,21.65
2022-12-11T15:42:31.927Z,21.75
2022-12-11T15:44:59.312Z,25.92
2022-12-11T15:47:26.879Z,21.50
2022-12-11T15:49:58.199Z,21.98
2022-12-11T15:52:25.059Z,23.20
2022-12-11T15:54:51.645Z,24.45
2022-12-11T15:57:19.971Z,23.38
2022-12-11T15:59:48.712Z,24.38
2022-12-11T16:02:15.521Z,24.38
2022-12-11T16:04:41.874Z,21.60
2022-12-11T16:07:18.890Z,21.42
2022-12-11T16:09:45.967Z,21.52
2022-12-11T16:12:13.879Z,20.13
2022-12-11T16:14:40.982Z,19.90
2022-12-11T16:17:07.711Z,22.15
2022-12-11T16:19:34.526Z,20.50
2022-12-11T16:22:00.832Z,19.83
2022-12-11T16:24:27.368Z,20.17
2022-12-11T16:26:53.706Z,19.92
2022-12-11T16:29:20.210Z,19.27
2022-12-11T16:31:46.591Z,20.00
2022-12-11T16:34:12.904Z,21.55
2022-12-11T16:36:39.204Z,20.45
2022-12-11T16:39:05.547Z,21.02
2022-12-11T16:41:31.865Z,19.83
2022-12-11T16:44:00.974Z,23.00
2022-12-11T16:46:27.624Z,29.45
2022-12-11T16:48:54.007Z,23.00
2022-12-11T16:51:20.375Z,22.10
2022-12-11T16:53:46.742Z,25.02
2022-12-11T16:56:13.042Z,24.98
2022-12-11T16:58:40.654Z,24.48
2022-12-11T17:01:14.147Z,24.48
2022-12-11T17:03:41.929Z,25.80
2022-12-11T17:06:10.052Z,25.58
2022-12-11T17:08:36.999Z,27.00
2022-12-11T17:11:07.505Z,23.35
2022-12-11T17:13:36.097Z,25.77
2022-12-11T17:16:10.638Z,28.67
2022-12-11T17:18:37.561Z,25.65
2022-12-11T17:21:07.960Z,22.95
2022-12-11T17:23:34.674Z,23.95
2022-12-11T17:26:02.512Z,27.15
2022-12-11T17:28:29.509Z,31.65
2022-12-11T17:30:56.091Z,24.70
2022-12-11T17:33:22.541Z,22.70
2022-12-11T17:35:48.858Z,26.60
2022-12-11T17:38:15.203Z,27.20
2022-12-11T17:40:42.605Z,27.00
2022-12-11T17:43:09.751Z,24.02
2022-12-11T17:45:46.861Z,26.45
2022-12-11T17:48:13.190Z,23.60
2022-12-11T17:50:40.423Z,25.38
2022-12-11T17:53:06.764Z,26.40
2022-12-11T17:55:33.679Z,25.02
2022-12-11T17:58:00.520Z,24.60
2022-12-11T18:00:32.969Z,25.23
2022-12-11T18:02:59.637Z,26.73
2022-12-11T18:05:26.098Z,26.48
2022-12-11T18:07:57.407Z,12.07
2022-12-11T18:10:24.407Z,25.70
2022-12-11T18:12:50.868Z,24.23
2022-12-11T18:15:19.965Z,25.00
2022-12-11T18:17:46.266Z,24.65
2022-12-11T18:20:16.338Z,26.42
2022-12-11T18:22:42.824Z,26.00
2022-12-11T18:25:11.840Z,23.48
2022-12-11T18:27:38.831Z,24.48
2022-12-11T18:30:05.475Z,21.02
2022-12-11T18:32:31.766Z,26.65
2022-12-11T18:34:58.142Z,25.23
2022-12-11T18:37:27.959Z,25.00
2022-12-11T18:39:54.610Z,23.48
2022-12-11T18:42:36.169Z,23.95
2022-12-11T18:45:02.604Z,30.85
2022-12-11T18:47:28.999Z,25.30
2022-12-11T18:49:55.350Z,25.33
2022-12-11T18:52:21.927Z,23.25
2022-12-11T18:54:49.147Z,25.83
2022-12-11T18:57:15.587Z,25.70
2022-12-11T18:59:41.902Z,25.30
2022-12-11T19:02:08.400Z,16.42
2022-12-11T19:04:36.121Z,30.58
2022-12-11T19:07:02.538Z,34.35
2022-12-11T19:09:32.690Z,27.73
2022-12-11T19:12:01.859Z,29.92
2022-12-11T19:14:28.190Z,31.17
2022-12-11T19:16:55.293Z,28.23
2022-12-11T19:19:22.014Z,33.78
2022-12-11T19:21:48.788Z,28.85
2022-12-11T19:24:17.067Z,30.42
2022-12-11T19:26:43.508Z,27.73
2022-12-11T19:29:09.991Z,30.95
2022-12-11T19:31:36.492Z,27.95
2022-12-11T19:34:02.970Z,29.63
2022-12-11T19:36:30.225Z,29.13
2022-12-11T19:39:01.414Z,26.83
2022-12-11T19:41:29.514Z,26.15
2022-12-11T19:43:56.372Z,27.08
2022-12-11T19:46:23.360Z,28.08
2022-12-11T19:48:50.881Z,26.58
2022-12-11T19:51:18.710Z,29.95
2022-12-11T19:53:45.672Z,26.27
2022-12-11T19:56:12.722Z,27.75
2022-12-11T19:58:39.022Z,26.15
2022-12-11T20:01:05.551Z,27.05
2022-12-11T20:03:32.034Z,28.25
2022-12-11T20:06:06.229Z,24.60
2022-12-11T20:08:48.187Z,27.08
2022-12-11T20:11:18.275Z,25.30
2022-12-11T20:13:48.598Z,33.42
2022-12-11T20:16:15.792Z,25.73
2022-12-11T20:18:42.379Z,27.45
2022-12-11T20:21:11.922Z,25.83
2022-12-11T20:23:38.263Z,24.73
2022-12-11T20:26:08.545Z,26.33
2022-12-11T20:28:35.467Z,29.10
2022-12-11T20:31:13.577Z,27.48
2022-12-11T20:33:42.891Z,23.38
2022-12-11T20:36:10.463Z,25.17
2022-12-11T20:38:37.456Z,31.02
2022-12-11T20:41:04.860Z,25.15
2022-12-11T20:43:31.260Z,25.33
2022-12-11T20:45:57.559Z,23.77
2022-12-11T20:48:23.948Z,23.88
2022-12-11T20:50:50.227Z,23.55
2022-12-11T20:53:16.526Z,22.25
2022-12-11T20:55:43.206Z,22.38
2022-12-11T20:58:10.034Z,24.83
2022-12-11T21:00:36.880Z,22.67
2022-12-11T21:03:03.567Z,24.85
2022-12-11T21:05:29.973Z,23.30
2022-12-11T21:07:56.410Z,23.50
2022-12-11T21:10:22.848Z,14.50
2022-12-11T21:12:49.303Z,23.65
2022-12-11T21:15:15.763Z,22.08
2022-12-11T21:17:42.310Z,20.60
2022-12-11T21:20:08.939Z,22.15
2022-12-11T21:22:35.327Z,21.13
2022-12-11T21:25:01.662Z,29.02
2022-12-11T21:27:28.079Z,22.42
2022-12-11T21:29:54.409Z,21.33
2022-12-11T21:32:20.729Z,21.60
2022-12-11T21:34:47.041Z,21.77
2022-12-11T21:37:13.353Z,24.73
2022-12-11T21:39:39.703Z,23.02
2022-12-11T21:42:06.027Z,22.27
2022-12-11T21:47:19.908Z,23.58
2022-12-11T21:49:46.214Z,24.25
2022-12-11T21:52:12.701Z,22.90
2022-12-11T21:54:39.132Z,23.17
2022-12-11T21:57:05.439Z,25.48
2022-12-11T21:59:31.949Z,21.48
2022-12-11T22:01:58.273Z,25.92
2022-12-11T22:04:24.627Z,21.77
2022-12-11T22:06:51.011Z,23.48
2022-12-11T22:09:18.017Z,24.77
2022-12-11T22:11:46.013Z,31.25
2022-12-11T22:14:12.842Z,22.95
2022-12-11T22:16:39.383Z,27.25
2022-12-11T22:19:05.762Z,26.83
2022-12-11T22:21:32.091Z,25.00
2022-12-11T22:23:58.463Z,19.25
2022-12-11T22:26:25.801Z,25.00
2022-12-11T22:28:52.425Z,21.15
2022-12-11T22:31:20.599Z,24.15
2022-12-11T22:33:49.564Z,23.45
2022-12-11T22:36:18.477Z,22.08
2022-12-11T22:38:45.034Z,22.20
2022-12-11T22:41:30.741Z,27.08
2022-12-11T22:43:57.816Z,13.82
2022-12-11T22:46:25.616Z,22.95
2022-12-11T22:48:52.479Z,23.05
2022-12-11T22:51:19.255Z,23.48
2022-12-11T22:53:45.615Z,23.98
2022-12-11T22:56:12.832Z,23.10
2022-12-11T22:58:39.612Z,22.17
2022-12-11T23:01:13.559Z,22.77
2022-12-11T23:03:40.534Z,22.52
2022-12-11T23:06:11.413Z,24.40
2022-12-11T23:08:37.943Z,21.77
2022-12-11T23:11:10.187Z,23.58
2022-12-11T23:13:36.483Z,22.50
2022-12-11T23:16:02.807Z,20.33
2022-12-11T23:18:29.110Z,24.63
2022-12-11T23:20:55.507Z,25.17
2022-12-11T23:23:21.807Z,26.75
2022-12-11T23:25:48.286Z,21.70
2022-12-11T23:28:14.706Z,22.52
2022-12-11T23:30:41.026Z,25.73
2022-12-11T23:33:08.303Z,22.70
2022-12-11T23:35:34.627Z,22.60
2022-12-11T23:38:00.935Z,26.90
2022-12-11T23:40:27.266Z,28.20
2022-12-11T23:42:53.640Z,24.30
2022-12-11T23:45:21.099Z,26.85
2022-12-11T23:47:47.510Z,23.75
2022-12-11T23:50:13.818Z,23.45
2022-12-11T23:52:40.307Z,24.67
2022-12-11T23:55:06.918Z,24.48
2022-12-11T23:57:33.795Z,24.10
